Time;durP1;ratioP1;P1;durP2;ratioP2;P2;SDS_P1;SDS_P2;PMS_P1;PMS_P2;Temp;Humidity;BMP_temperature;BMP_pressure;BME280_temperature;BME280_humidity;BME280_pressure;Samples;Min_cycle;Max_cycle;Signal;HPM_P1;HPM_P2
2021/05/11 00:01:11;;;;;;;13.23;2.97;;;;;;;20.89;34.97;99626.63;5072585;28;20518;-79
2021/05/11 00:03:37;;;;;;;9.23;2.45;;;;;;;20.83;35.02;99641.38;5071870;28;20063;-79
2021/05/11 00:06:04;;;;;;;9.70;1.98;;;;;;;20.55;35.40;99639.59;5072578;28;20021;-78
2021/05/11 00:08:29;;;;;;;11.10;3.05;;;;;;;20.62;35.16;99645.09;5072525;28;20024;-78
2021/05/11 00:10:55;;;;;;;10.75;2.38;;;;;;;20.78;34.83;99648.13;5072384;28;20065;-79
2021/05/11 00:13:21;;;;;;;16.88;3.20;;;;;;;20.80;34.80;99656.88;5071139;28;20021;-78
2021/05/11 00:15:46;;;;;;;10.25;3.67;;;;;;;20.69;34.98;99667.25;5071188;28;20031;-79
2021/05/11 00:18:13;;;;;;;10.43;2.10;;;;;;;20.29;35.67;99666.66;5072354;28;20032;-79
2021/05/11 00:20:39;;;;;;;12.07;2.67;;;;;;;20.53;35.44;99667.75;5072369;28;20062;-79
2021/05/11 00:23:05;;;;;;;9.82;2.30;;;;;;;20.63;34.94;99679.97;5072388;28;20491;-79
2021/05/11 00:25:31;;;;;;;12.05;2.67;;;;;;;20.50;34.95;99680.44;5072321;28;20130;-79
2021/05/11 00:27:56;;;;;;;10.85;2.30;;;;;;;20.43;35.11;99694.34;5070971;28;20402;-79
2021/05/11 00:30:22;;;;;;;9.48;2.17;;;;;;;20.49;34.93;99689.97;5072335;28;20383;-79
2021/05/11 00:32:49;;;;;;;8.13;2.53;;;;;;;20.42;34.95;99695.53;5072269;28;20075;-79
2021/05/11 00:35:15;;;;;;;9.32;2.38;;;;;;;20.45;34.88;99702.28;5071074;28;20528;-79
2021/05/11 00:37:41;;;;;;;13.18;3.13;;;;;;;20.45;34.96;99707.81;5072339;28;20021;-79
2021/05/11 00:40:08;;;;;;;8.88;2.47;;;;;;;20.33;35.09;99709.06;5072222;28;20025;-79
2021/05/11 00:42:34;;;;;;;12.65;2.58;;;;;;;20.45;34.92;99707.81;5072073;28;20445;-79
2021/05/11 00:45:00;;;;;;;11.80;2.92;;;;;;;20.33;35.11;99711.84;5072148;28;20082;-78
2021/05/11 00:47:26;;;;;;;10.77;2.30;;;;;;;20.36;35.09;99727.66;5070829;28;20033;-79
2021/05/11 00:49:52;;;;;;;14.38;4.10;;;;;;;20.16;35.27;99721.78;5070797;28;20082;-78
2021/05/11 00:52:18;;;;;;;8.30;2.55;;;;;;;20.34;35.03;99723.72;5072084;28;20434;-79
2021/05/11 00:54:46;;;;;;;13.30;3.08;;;;;;;20.36;35.07;99732.41;5070782;28;20037;-78
2021/05/11 00:57:12;;;;;;;14.52;2.78;;;;;;;20.17;35.56;99725.34;5070804;28;20036;-78
2021/05/11 00:59:38;;;;;;;9.88;2.70;;;;;;;20.30;35.07;99732.03;5072116;28;20025;-79
2021/05/11 01:02:06;;;;;;;9.82;3.15;;;;;;;20.21;35.15;99728.91;5071936;28;20039;-78
2021/05/11 01:04:32;;;;;;;11.05;3.83;;;;;;;20.16;35.20;99745.97;5071927;28;20059;-78
2021/05/11 01:06:58;;;;;;;11.20;3.40;;;;;;;20.17;35.31;99734.47;5071918;28;20021;-83
2021/05/11 01:09:25;;;;;;;7.97;2.08;;;;;;;19.89;35.52;99731.81;5053822;28;20175;-79
2021/05/11 01:11:52;;;;;;;8.90;2.47;;;;;;;20.08;35.33;99736.09;5051776;28;20029;-79
2021/05/11 01:14:18;;;;;;;9.20;2.30;;;;;;;20.08;35.21;99734.09;5053859;28;20055;-78
2021/05/11 01:16:47;;;;;;;12.30;3.60;;;;;;;20.09;35.13;99746.00;5055550;28;20025;-79
2021/05/11 01:19:16;;;;;;;10.07;2.53;;;;;;;20.19;35.25;99753.50;5054244;28;20029;-78
2021/05/11 01:21:50;;;;;;;10.60;3.22;;;;;;;20.07;35.11;99756.69;5055547;28;20020;-79
2021/05/11 01:24:23;;;;;;;11.57;2.33;;;;;;;20.08;35.18;99749.97;5054120;28;20029;-79
2021/05/11 01:26:56;;;;;;;12.45;3.05;;;;;;;19.93;35.51;99750.00;5054169;28;20025;-79
2021/05/11 01:32:17;;;;;;;11.82;3.60;;;;;;;19.85;35.62;99761.50;5055299;28;20017;-79
2021/05/11 01:51:08;;;;;;;11.90;2.13;;;;;;;19.88;34.95;99785.69;5054898;28;20479;-79
2021/05/11 02:23:02;;;;;;;11.40;2.67;;;;;;;19.60;34.94;99831.63;5054651;28;20040;-78
2021/05/11 02:25:27;;;;;;;10.85;2.80;;;;;;;19.69;34.80;99820.13;5053491;28;20040;-78
2021/05/11 02:27:53;;;;;;;15.32;4.25;;;;;;;19.64;34.98;99826.06;5054232;28;20590;-77
2021/05/11 02:30:19;;;;;;;13.10;3.10;;;;;;;19.55;35.01;99825.63;5054187;28;20029;-78
2021/05/11 02:32:45;;;;;;;12.55;3.25;;;;;;;19.58;35.05;99822.13;5054286;28;20028;-79
2021/05/11 02:35:12;;;;;;;8.68;3.25;;;;;;;19.56;34.78;99828.00;5054123;28;20356;-82
2021/05/11 02:37:38;;;;;;;12.63;3.47;;;;;;;19.48;35.08;99829.19;5054092;28;20067;-78
2021/05/11 02:40:07;;;;;;;13.23;2.83;;;;;;;19.50;35.19;99832.38;5054049;28;20036;-78
2021/05/11 02:42:33;;;;;;;20.67;3.65;;;;;;;19.64;34.73;99837.94;5052149;28;20053;-78
2021/05/11 02:44:59;;;;;;;13.43;3.42;;;;;;;19.64;34.80;99831.59;5051173;28;20032;-78
2021/05/11 02:47:25;;;;;;;16.33;3.35;;;;;;;19.64;34.81;99835.16;5053865;28;20036;-78
2021/05/11 02:49:51;;;;;;;12.20;3.22;;;;;;;19.33;35.32;99838.69;5053797;28;20032;-78
2021/05/11 02:52:18;;;;;;;15.32;3.40;;;;;;;19.48;34.85;99836.72;5053475;28;20025;-78
2021/05/11 02:54:43;;;;;;;12.30;2.67;;;;;;;19.52;35.05;99848.59;5053624;28;20041;-80
2021/05/11 02:57:09;;;;;;;9.82;3.08;;;;;;;19.52;34.83;99849.41;5053646;28;20029;-78
2021/05/11 02:59:35;;;;;;;16.77;3.55;;;;;;;19.51;34.77;99855.34;5053585;28;20021;-78
2021/05/11 03:02:02;;;;;;;12.73;3.40;;;;;;;19.38;35.02;99855.72;5068957;28;20044;-78
2021/05/11 03:04:27;;;;;;;16.80;4.00;;;;;;;19.32;35.31;99856.50;5053444;28;20387;-79
2021/05/11 03:06:57;;;;;;;12.63;3.40;;;;;;;19.34;35.13;99851.34;5053435;28;20107;-78
2021/05/11 03:09:26;;;;;;;16.25;3.92;;;;;;;19.24;35.17;99855.69;5052062;28;20031;-78
2021/05/11 03:11:54;;;;;;;11.88;2.90;;;;;;;19.25;35.45;99865.56;5053478;28;20024;-79
2021/05/11 03:14:20;;;;;;;15.60;3.97;;;;;;;19.29;35.03;99863.63;5053318;28;20028;-78
2021/05/11 03:16:48;;;;;;;19.80;3.75;;;;;;;19.28;34.97;99866.78;5053279;28;20123;-79
2021/05/11 03:19:13;;;;;;;19.63;3.60;;;;;;;19.28;34.94;99864.81;5053207;28;20028;-79
2021/05/11 03:21:39;;;;;;;15.75;3.25;;;;;;;19.26;35.15;99871.91;5053267;28;20021;-78
2021/05/11 03:24:07;;;;;;;13.18;3.83;;;;;;;19.27;34.85;99874.31;5051877;28;20032;-79
2021/05/11 03:26:33;;;;;;;14.95;2.63;;;;;;;19.28;34.95;99870.34;5051921;28;20025;-79
2021/05/11 03:28:58;;;;;;;10.98;3.20;;;;;;;19.26;34.81;99869.91;5053079;28;20059;-79
2021/05/11 03:31:24;;;;;;;11.57;3.58;;;;;;;19.22;35.07;99882.19;5051822;28;20040;-79
2021/05/11 03:33:50;;;;;;;13.73;3.97;;;;;;;19.13;35.00;99877.03;5053277;28;20029;-78
2021/05/11 03:36:15;;;;;;;13.73;3.40;;;;;;;19.16;35.03;99881.78;5051458;28;20117;-78
2021/05/11 03:38:41;;;;;;;15.48;3.67;;;;;;;19.16;34.79;99881.78;5052263;28;20475;-79
2021/05/11 03:41:07;;;;;;;13.82;3.05;;;;;;;19.12;34.90;99881.00;5052724;28;20036;-78
2021/05/11 03:43:46;;;;;;;15.55;3.30;;;;;;;18.99;35.08;99891.63;5052749;28;20040;-78
2021/05/11 03:46:12;;;;;;;6.95;2.38;;;;;;;19.02;35.01;99884.50;5052839;28;20055;-78
2021/05/11 03:48:38;;;;;;;13.85;3.80;;;;;;;19.01;34.96;99880.16;5051557;28;20056;-78
2021/05/11 03:51:06;;;;;;;10.85;3.45;;;;;;;19.03;34.96;99891.63;5052705;28;20043;-78
2021/05/11 03:53:33;;;;;;;15.73;3.55;;;;;;;19.00;34.87;99889.63;5051401;28;20155;-79
2021/05/11 03:55:59;;;;;;;15.15;2.80;;;;;;;18.97;34.84;99893.19;5052743;28;20028;-78
2021/05/11 03:58:26;;;;;;;11.80;2.67;;;;;;;18.96;34.83;99894.34;5052711;28;20094;-78
2021/05/11 04:00:52;;;;;;;22.02;4.32;;;;;;;18.90;34.90;99893.19;5052671;28;20027;-78
2021/05/11 04:05:53;;;;;;;15.05;3.75;;;;;;;18.94;34.76;99891.19;5140833;23;20412;-78
2021/05/11 04:11:07;;;;;;;19.95;4.43;;;;;;;19.01;34.63;99900.31;4974157;28;20081;-78
2021/05/11 04:13:51;;;;;;;27.67;4.60;;;;;;;18.95;34.71;99890.81;4973936;28;20123;-79
2021/05/11 04:16:23;;;;;;;30.48;6.07;;;;;;;18.99;34.67;99891.63;4972742;28;20037;-78
2021/05/11 04:18:49;;;;;;;19.50;3.75;;;;;;;19.03;34.48;99903.47;4972988;28;20027;-78
2021/05/11 04:21:15;;;;;;;25.70;5.32;;;;;;;18.90;34.78;99907.00;4974144;28;20030;-79
2021/05/11 04:23:42;;;;;;;17.20;4.03;;;;;;;18.97;34.76;99909.81;4972583;28;20038;-79
2021/05/11 04:26:08;;;;;;;17.55;3.55;;;;;;;18.97;34.61;99913.38;4973778;28;20495;-78
2021/05/11 04:28:33;;;;;;;31.88;5.55;;;;;;;18.83;34.84;99905.00;4973851;28;20026;-79
2021/05/11 04:30:59;;;;;;;21.80;4.93;;;;;;;18.91;34.45;99901.09;4973719;28;20035;-78
2021/05/11 04:33:26;;;;;;;20.85;4.70;;;;;;;18.90;34.50;99898.72;4974030;28;20470;-79
2021/05/11 04:35:53;;;;;;;38.50;5.07;;;;;;;18.77;34.76;99895.47;4973858;28;20114;-79
2021/05/11 04:38:19;;;;;;;24.48;5.18;;;;;;;18.88;34.33;99901.06;4972900;28;20034;-78
2021/05/11 04:40:44;;;;;;;27.60;5.28;;;;;;;18.86;34.86;99904.22;4973631;28;20023;-79
2021/05/11 04:43:10;;;;;;;37.30;6.85;;;;;;;18.83;34.48;99910.53;4973530;28;20023;-78
2021/05/11 04:45:36;;;;;;;19.13;4.78;;;;;;;18.77;34.69;99899.03;4973554;28;20035;-78
2021/05/11 04:48:01;;;;;;;34.92;5.72;;;;;;;18.69;34.77;99902.16;4973718;28;20027;-78
2021/05/11 04:50:28;;;;;;;13.00;3.92;;;;;;;18.66;34.59;99911.22;4977207;28;20030;-78
2021/05/11 04:52:55;;;;;;;20.83;5.05;;;;;;;18.59;34.60;99909.22;4976542;28;20034;-78
2021/05/11 04:55:21;;;;;;;23.30;4.40;;;;;;;18.63;34.56;99914.75;4977179;28;20022;-78
2021/05/11 04:57:47;;;;;;;14.07;3.58;;;;;;;18.58;34.56;99910.38;4977528;28;20500;-78
2021/05/11 05:00:15;;;;;;;23.00;6.07;;;;;;;18.51;35.01;99921.38;4977364;28;20047;-79
2021/05/11 05:02:43;;;;;;;27.45;5.28;;;;;;;18.56;34.89;99916.28;4977458;28;20027;-79
2021/05/11 05:05:09;;;;;;;19.75;4.70;;;;;;;18.61;34.79;99920.69;4976930;28;20516;-78
2021/05/11 05:07:36;;;;;;;17.98;4.40;;;;;;;18.50;34.94;99926.13;4977255;28;20433;-78
2021/05/11 05:10:04;;;;;;;33.50;6.88;;;;;;;18.45;34.86;99928.50;4977120;28;20033;-78
2021/05/11 05:12:30;;;;;;;25.90;5.28;;;;;;;18.42;34.80;99943.06;4977136;28;20038;-78
2021/05/11 05:14:55;;;;;;;33.42;6.03;;;;;;;18.47;34.83;99939.94;4977039;28;20054;-78
2021/05/11 05:17:21;;;;;;;33.30;6.70;;;;;;;18.55;34.79;99941.59;4976822;28;20120;-79
2021/05/11 05:19:46;;;;;;;24.35;4.68;;;;;;;18.64;34.86;99944.00;4976902;28;20416;-78
2021/05/11 05:22:12;;;;;;;25.02;5.47;;;;;;;18.73;34.79;99941.69;4976778;28;20370;-79
2021/05/11 05:29:44;;;;;;;12.98;3.97;;;;;;;19.10;34.72;99942.28;4976682;28;20384;-79
2021/05/11 05:32:09;;;;;;;24.95;4.82;;;;;;;19.27;34.57;99943.53;4976675;28;20106;-79
2021/05/11 05:34:35;;;;;;;17.15;4.20;;;;;;;19.38;34.37;99946.31;4976655;28;20070;-78
2021/05/11 05:37:01;;;;;;;27.88;6.00;;;;;;;19.29;34.74;99946.69;4979226;28;20089;-78
2021/05/11 05:39:38;;;;;;;19.67;4.63;;;;;;;19.51;34.24;99952.31;4981233;28;20034;-78
2021/05/11 05:42:04;;;;;;;16.08;3.88;;;;;;;19.70;34.07;99956.72;4971777;28;20389;-79
2021/05/11 05:44:30;;;;;;;24.38;4.95;;;;;;;19.87;33.99;99953.16;4974448;28;20039;-79
2021/05/11 05:46:55;;;;;;;24.52;4.93;;;;;;;20.03;33.66;99959.13;4976976;28;20572;-80
2021/05/11 05:49:22;;;;;;;28.90;4.85;;;;;;;20.17;33.70;99961.88;4966519;28;20031;-79
2021/05/11 05:51:50;;;;;;;20.05;4.15;;;;;;;20.31;33.74;99958.31;4962711;28;20121;-79
2021/05/11 05:54:15;;;;;;;16.27;4.18;;;;;;;20.43;33.54;99959.91;4963123;28;20434;-80
2021/05/11 05:56:41;;;;;;;19.70;3.75;;;;;;;20.07;34.08;99967.44;4964839;28;20019;-79
2021/05/11 05:59:07;;;;;;;16.50;3.70;;;;;;;20.44;33.25;99965.09;4964658;28;20035;-81
2021/05/11 06:01:33;;;;;;;17.10;3.25;;;;;;;20.56;33.15;99963.09;4958301;28;20026;-78
2021/05/11 06:04:09;;;;;;;36.63;6.22;;;;;;;20.38;33.62;99969.41;4968965;28;20026;-79
2021/05/11 06:06:35;;;;;;;16.90;4.72;;;;;;;20.46;33.65;99975.78;4962845;28;20022;-76
2021/05/11 06:09:01;;;;;;;23.33;4.95;;;;;;;20.54;33.56;99973.78;4961819;28;20027;-80
2021/05/11 06:19:14;;;;;;;21.50;6.13;;;;;;;20.72;33.31;99994.00;4962689;28;20090;-77
2021/05/11 06:21:40;;;;;;;19.00;4.35;;;;;;;20.81;33.26;99997.13;4966539;28;20429;-77
2021/05/11 06:24:07;;;;;;;16.27;3.75;;;;;;;20.81;33.23;100001.91;4967458;28;20027;-78
2021/05/11 06:26:32;;;;;;;17.35;4.72;;;;;;;20.89;33.23;100003.47;4959120;28;20400;-77
2021/05/11 06:29:00;;;;;;;21.17;5.15;;;;;;;20.82;33.45;100000.69;4972250;28;20109;-77
2021/05/11 06:31:26;;;;;;;24.75;5.50;;;;;;;21.05;33.20;100007.38;4972872;28;20030;-77
2021/05/11 06:33:52;;;;;;;15.88;3.78;;;;;;;20.99;33.31;100006.19;4969090;28;20035;-77
2021/05/11 06:36:17;;;;;;;24.42;5.05;;;;;;;21.18;33.21;100004.16;4962010;28;20492;-77
2021/05/11 06:38:43;;;;;;;18.17;4.68;;;;;;;21.20;33.28;99999.00;4964191;28;20090;-77
2021/05/11 06:41:10;;;;;;;19.83;4.75;;;;;;;21.32;33.11;99996.59;4964348;28;20096;-77
2021/05/11 06:43:36;;;;;;;12.80;3.22;;;;;;;21.54;32.87;99999.28;4971391;28;20081;-75
2021/05/11 06:53:55;;;;;;;21.02;4.75;;;;;;;21.70;32.78;100007.13;4955913;29;20118;-76
2021/05/11 06:56:22;;;;;;;22.58;5.45;;;;;;;21.69;32.76;100014.69;4955403;28;20114;-76
2021/05/11 06:58:48;;;;;;;14.52;4.18;;;;;;;21.89;32.44;100003.81;4961789;28;20026;-78
2021/05/11 07:01:21;;;;;;;22.48;5.10;;;;;;;22.03;32.21;100014.84;4943587;28;20023;-78
2021/05/11 07:03:48;;;;;;;44.78;10.20;;;;;;;22.01;31.92;100024.81;4958291;28;20031;-77
2021/05/11 07:06:15;;;;;;;25.10;4.82;;;;;;;22.09;31.97;100023.59;4958877;28;20121;-77
2021/05/11 07:13:48;;;;;;;17.70;3.33;;;;;;;22.30;32.29;100042.13;4957610;28;20585;-76
2021/05/11 07:16:14;;;;;;;20.17;3.83;;;;;;;22.48;31.83;100039.19;4956765;28;20069;-77
2021/05/11 07:18:39;;;;;;;28.33;6.43;;;;;;;22.53;31.83;100047.09;4955157;28;20658;-76
2021/05/11 07:21:05;;;;;;;17.55;4.18;;;;;;;22.54;31.54;100055.03;4958758;28;20035;-77
2021/05/11 07:23:32;;;;;;;21.80;4.85;;;;;;;22.61;31.29;100063.34;4962827;28;20123;-76
2021/05/11 07:26:10;;;;;;;12.80;3.28;;;;;;;22.52;31.48;100057.44;4963968;28;20515;-76
2021/05/11 07:31:30;;;;;;;16.23;5.32;;;;;;;22.64;31.02;100059.72;4962158;28;20131;-75
2021/05/11 07:33:56;;;;;;;14.32;4.03;;;;;;;22.61;31.28;100060.56;4961985;28;20500;-76
2021/05/11 07:36:23;;;;;;;27.30;4.93;;;;;;;22.78;30.83;100055.22;4960247;28;20053;-76
2021/05/11 07:38:49;;;;;;;28.20;5.22;;;;;;;22.92;30.57;100055.13;4956365;28;20046;-77
2021/05/11 07:41:16;;;;;;;14.57;4.05;;;;;;;23.05;30.11;100058.97;4957140;28;20027;-78
2021/05/11 07:43:46;;;;;;;13.60;2.95;;;;;;;23.12;29.97;100061.66;4955463;28;20113;-77
2021/05/11 08:05:10;;;;;;;12.82;3.13;;;;;;;24.23;27.46;100083.38;4971244;28;20054;-78
2021/05/11 08:10:50;;;;;;;15.43;3.05;;;;;;;24.38;27.50;100074.81;4972962;28;20412;-76
2021/05/11 08:16:06;;;;;;;18.38;4.78;;;;;;;24.43;26.52;100077.13;4972181;28;20046;-76
2021/05/11 08:18:57;;;;;;;12.68;2.78;;;;;;;24.44;26.40;100079.50;4972300;28;20362;-76
2021/05/11 08:29:34;;;;;;;14.43;3.60;;;;;;;24.73;26.27;100099.38;4974594;28;20199;-76
2021/05/11 08:32:00;;;;;;;9.52;3.20;;;;;;;24.70;26.59;100091.03;4975393;28;20121;-76
2021/05/11 08:34:26;;;;;;;18.48;4.78;;;;;;;24.97;26.63;100097.34;4976688;28;20033;-76
2021/05/11 08:36:52;;;;;;;20.80;4.47;;;;;;;25.29;26.40;100091.19;4976560;28;20023;-76
2021/05/11 08:39:18;;;;;;;13.55;3.83;;;;;;;25.44;26.37;100095.28;4976464;28;20023;-76
2021/05/11 08:41:46;;;;;;;12.93;3.72;;;;;;;25.33;25.88;100100.31;4972435;28;20038;-75
2021/05/11 08:44:16;;;;;;;12.70;3.65;;;;;;;25.48;25.74;100098.00;4975468;28;20069;-76
2021/05/11 08:46:42;;;;;;;12.63;2.83;;;;;;;25.63;26.11;100101.31;4974427;28;20051;-75
2021/05/11 08:49:12;;;;;;;13.57;3.92;;;;;;;25.65;25.68;100102.44;4975964;28;20546;-75
2021/05/11 08:52:04;;;;;;;18.83;5.72;;;;;;;25.48;26.52;100102.81;4975423;28;20023;-75
2021/05/11 09:00:05;;;;;;;10.07;2.90;;;;;;;25.01;27.21;100108.44;4977201;28;20058;-78
2021/05/11 09:08:15;;;;;;;12.43;2.88;;;;;;;25.31;26.35;100105.50;4973947;28;20047;-76
2021/05/11 09:56:47;;;;;;;16.52;4.82;;;;;;;25.73;27.56;100136.69;4976374;28;20082;-76
2021/05/11 09:59:40;;;;;;;16.08;3.45;;;;;;;25.32;28.32;100140.66;4974484;28;20453;-74
2021/05/11 10:41:51;;;;;;;12.27;3.83;;;;;;;26.63;26.82;100158.72;4975579;28;20404;-75
2021/05/11 10:45:03;;;;;;;15.15;3.80;;;;;;;26.82;26.50;100157.06;4973786;28;20034;-75
2021/05/11 10:47:14;;;;;;;18.05;4.03;;;;;;;26.36;26.75;100160.94;4974416;28;20066;-75
2021/05/11 10:49:40;;;;;;;11.68;3.85;;;;;;;26.55;26.64;100160.91;4975445;28;20057;-74
2021/05/11 10:52:26;;;;;;;10.57;3.53;;;;;;;26.72;26.69;100164.50;4975119;28;20030;-76
2021/05/11 10:55:00;;;;;;;11.32;4.43;;;;;;;26.96;26.79;100167.13;4975163;28;20442;-74
2021/05/11 10:57:47;;;;;;;15.63;4.03;;;;;;;26.70;26.42;100168.97;4974989;28;20038;-74
2021/05/11 11:00:28;;;;;;;17.20;4.72;;;;;;;26.68;25.95;100165.84;4974980;28;20105;-74
2021/05/11 11:03:23;;;;;;;17.92;4.95;;;;;;;26.91;25.67;100170.47;4974905;28;20034;-74
2021/05/11 11:05:56;;;;;;;17.80;4.50;;;;;;;26.72;26.74;100172.13;4974595;28;20450;-74
2021/05/11 11:08:31;;;;;;;11.43;3.78;;;;;;;27.00;25.32;100165.81;4974735;28;20081;-74
2021/05/11 11:11:20;;;;;;;12.07;3.40;;;;;;;26.87;25.83;100166.97;4974723;28;20029;-75
2021/05/11 11:13:48;;;;;;;10.90;4.03;;;;;;;27.13;25.82;100174.34;4974754;28;20029;-76
2021/05/11 11:16:14;;;;;;;17.92;3.85;;;;;;;27.29;25.92;100176.34;4974672;28;20106;-75
2021/05/11 11:18:40;;;;;;;19.10;3.85;;;;;;;27.28;25.77;100167.13;4973275;28;20026;-74
2021/05/11 11:23:52;;;;;;;13.20;3.15;;;;;;;27.31;25.70;100171.84;4974784;28;20073;-74
2021/05/11 11:26:26;;;;;;;9.95;2.90;;;;;;;27.59;24.95;100175.13;4974580;28;20038;-74
2021/05/11 11:29:20;;;;;;;12.43;3.45;;;;;;;27.10;25.83;100169.59;4974428;28;20052;-75
2021/05/11 11:31:46;;;;;;;10.90;3.28;;;;;;;27.22;25.54;100179.31;4972911;28;20485;-75
2021/05/11 11:34:25;;;;;;;15.32;4.03;;;;;;;26.86;25.34;100171.00;4974390;28;20034;-75
2021/05/11 11:36:59;;;;;;;11.90;3.40;;;;;;;26.71;25.68;100170.56;4974405;28;20089;-74
2021/05/11 11:39:45;;;;;;;12.75;3.70;;;;;;;26.96;25.84;100181.13;4974316;28;20026;-75
2021/05/11 11:42:22;;;;;;;16.63;3.83;;;;;;;26.78;25.74;100175.97;4974305;28;20106;-75
2021/05/11 11:44:57;;;;;;;10.23;3.10;;;;;;;26.91;25.73;100176.88;4974137;28;20082;-75
2021/05/11 11:47:23;;;;;;;8.88;2.58;;;;;;;26.58;26.33;100178.06;4974211;28;20019;-75
2021/05/11 11:50:00;;;;;;;13.38;2.90;;;;;;;26.62;25.74;100185.16;4974080;28;20109;-75
2021/05/11 11:52:33;;;;;;;14.18;3.40;;;;;;;27.20;25.38;100185.34;4972853;28;20027;-75
2021/05/11 12:00:14;;;;;;;16.42;3.83;;;;;;;27.20;24.39;100196.56;4973578;28;20034;-75
2021/05/11 12:03:03;;;;;;;17.10;3.90;;;;;;;27.08;24.92;100192.47;4974258;28;20058;-74
2021/05/11 12:05:33;;;;;;;21.70;4.83;;;;;;;27.18;24.72;100190.63;4973745;28;20065;-75
2021/05/11 12:10:55;;;;;;;14.70;3.53;;;;;;;27.01;24.44;100189.81;4974262;28;20031;-74
2021/05/11 12:13:41;;;;;;;13.77;4.25;;;;;;;27.35;24.81;100199.78;4973832;28;20102;-74
2021/05/11 12:16:21;;;;;;;11.13;2.67;;;;;;;27.61;24.34;100193.09;4973478;28;20043;-74
2021/05/11 12:21:27;;;;;;;21.70;4.63;;;;;;;27.58;24.94;100188.38;4974016;28;20080;-73
2021/05/11 12:24:11;;;;;;;13.60;3.28;;;;;;;27.12;24.96;100177.56;4962879;28;20035;-74
2021/05/11 12:26:38;;;;;;;13.75;3.47;;;;;;;27.61;24.49;100181.06;4963009;28;20106;-75
2021/05/11 12:29:08;;;;;;;11.07;2.50;;;;;;;27.39;23.90;100186.47;4959909;28;20030;-76
2021/05/11 12:31:43;;;;;;;17.70;4.32;;;;;;;27.38;24.56;100191.28;4961318;28;20035;-77
2021/05/11 12:34:12;;;;;;;11.40;2.78;;;;;;;27.15;25.51;100183.09;4963923;28;20050;-76
2021/05/11 12:36:47;;;;;;;13.27;3.88;;;;;;;27.65;23.93;100182.53;4963695;28;20054;-76
2021/05/11 12:42:17;;;;;;;57.85;9.15;;;;;;;27.75;24.75;100191.16;4958364;28;20499;-77
2021/05/11 12:44:44;;;;;;;14.95;3.83;;;;;;;27.87;24.89;100182.75;4953970;28;20446;-76
2021/05/11 12:47:10;;;;;;;12.52;3.53;;;;;;;28.07;24.61;100190.22;4951883;28;20133;-76
2021/05/11 12:49:36;;;;;;;14.65;3.65;;;;;;;27.84;24.65;100188.47;4947103;28;20725;-77
2021/05/11 12:52:05;;;;;;;14.70;4.38;;;;;;;28.45;24.32;100193.09;4948233;28;20031;-75
2021/05/11 13:02:42;;;;;;;8.18;2.97;;;;;;;27.31;25.75;100202.72;4945823;28;20488;-76
2021/05/11 13:27:28;;;;;;;15.52;3.70;;;;;;;27.25;25.49;100184.03;4966655;28;20038;-76
2021/05/11 13:32:37;;;;;;;12.82;3.50;;;;;;;26.87;25.47;100178.97;4966944;28;20026;-75
2021/05/11 13:35:01;;;;;;;11.07;3.05;;;;;;;27.34;25.20;100192.59;4965585;28;20033;-81
2021/05/11 13:37:28;;;;;;;14.35;3.85;;;;;;;27.29;25.06;100191.16;4966039;28;20107;-76
2021/05/11 13:39:55;;;;;;;13.57;3.45;;;;;;;27.38;25.27;100191.28;4964619;28;20046;-76
2021/05/11 13:42:21;;;;;;;16.02;3.65;;;;;;;27.99;24.78;100195.25;4964255;28;20030;-75
2021/05/11 13:44:50;;;;;;;12.88;3.10;;;;;;;27.77;24.16;100194.28;4965575;28;20620;-75
2021/05/11 13:47:16;;;;;;;10.57;3.17;;;;;;;27.60;24.67;100196.34;4964326;28;20061;-75
2021/05/11 13:49:42;;;;;;;13.75;3.75;;;;;;;27.61;24.59;100197.91;4966350;28;20101;-75
2021/05/11 13:52:08;;;;;;;13.65;3.38;;;;;;;27.29;24.67;100184.75;4964246;28;20078;-78
2021/05/11 13:54:34;;;;;;;14.13;3.38;;;;;;;27.29;25.04;100195.97;4963662;28;20086;-76
2021/05/11 14:02:48;;;;;;;12.43;3.20;;;;;;;27.40;24.42;100199.25;4965798;28;20030;-76
2021/05/11 14:05:21;;;;;;;12.15;3.92;;;;;;;27.07;24.66;100190.91;4967251;28;20035;-75
2021/05/11 14:07:47;;;;;;;11.43;3.28;;;;;;;27.34;24.31;100201.03;4964939;28;20033;-76
2021/05/11 14:10:13;;;;;;;11.48;2.85;;;;;;;27.25;24.38;100200.88;4964498;28;20448;-74
2021/05/11 14:12:40;;;;;;;17.80;3.95;;;;;;;27.33;24.27;100202.25;4965658;28;20027;-75
2021/05/11 14:15:08;;;;;;;14.93;4.00;;;;;;;27.48;24.22;100206.25;4965120;28;20022;-76
2021/05/11 14:17:34;;;;;;;15.68;3.45;;;;;;;27.28;24.57;100202.78;4965964;28;20027;-76
2021/05/11 14:20:01;;;;;;;22.30;5.72;;;;;;;27.55;24.34;100206.06;4963145;28;20043;-75
2021/05/11 14:22:28;;;;;;;13.60;3.92;;;;;;;27.06;25.58;100205.38;4968055;28;20026;-75
2021/05/11 14:24:54;;;;;;;13.27;4.03;;;;;;;27.04;25.15;100205.00;4973002;28;20046;-75
2021/05/11 14:27:21;;;;;;;9.32;2.85;;;;;;;27.29;24.92;100212.78;4969741;28;20035;-75
2021/05/11 14:29:47;;;;;;;14.30;3.90;;;;;;;27.39;24.58;100211.72;4963309;28;20031;-75
2021/05/11 14:32:12;;;;;;;10.95;3.38;;;;;;;27.14;24.97;100209.56;4964754;28;20031;-75
2021/05/11 14:34:38;;;;;;;13.52;3.97;;;;;;;26.94;24.88;100212.41;4965803;28;20031;-75
2021/05/11 14:37:04;;;;;;;12.77;3.88;;;;;;;26.95;24.82;100219.59;4967254;28;20035;-75
2021/05/11 14:39:30;;;;;;;11.75;3.25;;;;;;;27.19;24.20;100214.63;4961610;28;20109;-75
2021/05/11 14:41:59;;;;;;;20.52;8.70;;;;;;;27.22;24.58;100215.78;4959288;28;20122;-74
2021/05/11 14:44:26;;;;;;;21.60;5.03;;;;;;;27.19;24.30;100223.03;4971943;28;20778;-75
2021/05/11 14:46:52;;;;;;;8.88;2.65;;;;;;;27.03;24.52;100226.59;4964769;28;20034;-78
2021/05/11 14:49:19;;;;;;;14.18;2.90;;;;;;;27.47;24.26;100229.94;4963760;28;20037;-75
2021/05/11 14:51:45;;;;;;;11.15;3.80;;;;;;;27.04;24.39;100233.03;4962033;28;20167;-75
2021/05/11 14:54:11;;;;;;;16.83;4.15;;;;;;;26.88;25.28;100222.56;4964629;28;20532;-75
2021/05/11 14:56:40;;;;;;;12.93;3.60;;;;;;;27.38;25.06;100221.38;4961940;28;20022;-75
2021/05/11 14:59:08;;;;;;;23.73;5.15;;;;;;;27.17;25.07;100227.53;4963925;28;20030;-75
2021/05/11 15:01:34;;;;;;;9.32;2.55;;;;;;;27.15;25.01;100222.34;4959675;28;20035;-75
2021/05/11 15:04:00;;;;;;;11.13;3.42;;;;;;;27.16;25.12;100221.13;4973829;28;20054;-75
2021/05/11 15:06:27;;;;;;;13.88;3.08;;;;;;;27.02;25.38;100218.63;4974459;28;20520;-75
2021/05/11 15:08:52;;;;;;;11.52;3.15;;;;;;;27.13;25.76;100218.41;4972106;28;20023;-75
2021/05/11 15:11:18;;;;;;;15.23;3.35;;;;;;;27.17;25.74;100216.31;4973532;28;20031;-75
2021/05/11 15:13:45;;;;;;;20.27;4.97;;;;;;;27.21;25.02;100206.59;4974050;28;20030;-75
2021/05/11 15:16:12;;;;;;;10.25;4.63;;;;;;;27.06;25.30;100213.78;4972540;28;20019;-75
2021/05/11 15:18:38;;;;;;;15.55;3.33;;;;;;;27.60;25.13;100219.56;4971712;28;20034;-76
2021/05/11 15:21:04;;;;;;;13.85;3.38;;;;;;;27.30;25.16;100222.78;4969645;28;20473;-75
2021/05/11 15:23:30;;;;;;;7.53;2.42;;;;;;;26.99;25.16;100214.72;4972430;28;20096;-75
2021/05/11 15:25:55;;;;;;;17.85;3.55;;;;;;;27.28;25.06;100220.44;4973743;28;20122;-79
2021/05/11 15:28:21;;;;;;;8.93;2.75;;;;;;;27.18;25.33;100210.25;4956044;28;20035;-77
2021/05/11 15:30:47;;;;;;;12.25;3.78;;;;;;;27.26;25.10;100210.84;4954700;28;20042;-76
2021/05/11 15:33:12;;;;;;;6.38;2.70;;;;;;;27.65;24.66;100216.22;4953102;28;20751;-74
2021/05/11 15:35:38;;;;;;;11.27;2.65;;;;;;;27.42;25.24;100219.25;4955139;28;20077;-75
2021/05/11 15:38:06;;;;;;;11.65;3.10;;;;;;;27.40;25.58;100218.91;4956021;28;20034;-75
2021/05/11 15:40:41;;;;;;;14.65;3.35;;;;;;;27.31;24.97;100222.34;4962921;28;20473;-76
2021/05/11 15:43:08;;;;;;;19.85;3.90;;;;;;;27.67;24.93;100229.03;4964302;28;20104;-76
2021/05/11 15:45:35;;;;;;;15.15;3.20;;;;;;;27.60;25.35;100232.81;4960890;28;20050;-78
2021/05/11 15:48:06;;;;;;;13.48;4.25;;;;;;;27.87;25.28;100233.28;4953619;28;20050;-75
2021/05/11 15:50:35;;;;;;;17.77;3.35;;;;;;;27.74;25.33;100234.50;4955290;28;20030;-75
2021/05/11 15:53:03;;;;;;;16.33;3.75;;;;;;;27.53;26.12;100231.00;4970055;28;20030;-76
2021/05/11 15:55:34;;;;;;;18.73;4.93;;;;;;;27.63;26.23;100231.91;4970509;28;20035;-76